Time;durP1;ratioP1;P1;durP2;ratioP2;P2;SDS_P1;SDS_P2;PMS_P1;PMS_P2;Temp;Humidity;BMP_temperature;BMP_pressure;BME280_temperature;BME280_humidity;BME280_pressure;Samples;Min_cycle;Max_cycle;Signal;HPM_P1;HPM_P2
2023/06/24 00:00:30;;;;;;;8.90;5.97;;;15.80;99.90;;;;;;4985913;28;20064;-76
2023/06/24 00:02:57;;;;;;;10.93;5.68;;;15.80;99.90;;;;;;4982424;28;20057;-76
2023/06/24 00:05:23;;;;;;;11.00;6.53;;;15.80;99.90;;;;;;5000028;28;20118;-76
2023/06/24 00:07:49;;;;;;;9.65;6.60;;;15.80;99.90;;;;;;5001279;28;20129;-75
2023/06/24 00:10:15;;;;;;;8.75;6.15;;;15.80;99.90;;;;;;5002957;28;20049;-76
2023/06/24 00:12:41;;;;;;;7.43;5.68;;;15.70;99.90;;;;;;4985067;28;20439;-75
2023/06/24 00:15:11;;;;;;;8.27;5.45;;;15.70;99.90;;;;;;4982270;28;20138;-75
2023/06/24 00:17:37;;;;;;;8.57;6.07;;;15.60;99.90;;;;;;4982213;28;20112;-75
2023/06/24 00:20:08;;;;;;;9.30;6.38;;;15.60;99.90;;;;;;4989799;28;20129;-75
2023/06/24 00:22:34;;;;;;;8.90;7.18;;;15.50;99.90;;;;;;4987084;28;20053;-76
2023/06/24 00:25:00;;;;;;;9.95;6.57;;;15.50;99.90;;;;;;5002265;28;20053;-76
2023/06/24 00:27:26;;;;;;;11.02;6.72;;;15.50;99.90;;;;;;4982024;28;20042;-76
2023/06/24 00:29:52;;;;;;;10.27;7.20;;;15.40;99.90;;;;;;4981960;28;20054;-75
2023/06/24 00:32:17;;;;;;;8.82;6.45;;;15.40;99.90;;;;;;5001429;28;20066;-76
2023/06/24 00:34:43;;;;;;;10.60;7.07;;;15.30;99.90;;;;;;5002542;28;20406;-76
2023/06/24 00:37:09;;;;;;;11.02;7.05;;;15.40;99.90;;;;;;5002321;28;20038;-76
2023/06/24 00:39:35;;;;;;;9.38;6.47;;;15.30;99.90;;;;;;4999012;28;20058;-76
2023/06/24 00:42:01;;;;;;;9.18;7.30;;;15.30;99.90;;;;;;4965544;28;20061;-76
2023/06/24 00:44:27;;;;;;;10.30;6.72;;;15.30;99.90;;;;;;4983333;28;20053;-75
2023/06/24 00:46:54;;;;;;;12.43;8.13;;;15.30;99.90;;;;;;4984914;28;20129;-75
2023/06/24 00:49:19;;;;;;;14.50;8.07;;;15.20;99.90;;;;;;4985073;28;20045;-75
2023/06/24 00:51:50;;;;;;;12.27;8.05;;;15.30;99.90;;;;;;4999332;28;20061;-76
2023/06/24 00:54:16;;;;;;;13.38;8.18;;;15.20;99.90;;;;;;4998869;28;20073;-75
2023/06/24 00:56:42;;;;;;;12.13;8.88;;;15.30;99.90;;;;;;4983112;28;20552;-76
2023/06/24 00:59:10;;;;;;;11.32;8.55;;;15.20;99.90;;;;;;5002299;28;20465;-76
2023/06/24 01:01:35;;;;;;;10.57;8.40;;;15.20;99.90;;;;;;4983895;28;20073;-75
2023/06/24 01:04:03;;;;;;;12.90;8.90;;;15.10;99.90;;;;;;4999278;28;20077;-75
2023/06/24 01:06:29;;;;;;;10.98;8.15;;;15.20;99.90;;;;;;4999316;28;20085;-76
2023/06/24 01:09:00;;;;;;;12.93;8.43;;;15.20;99.90;;;;;;4983268;28;20091;-74
2023/06/24 01:11:27;;;;;;;11.10;9.02;;;15.20;99.90;;;;;;5002108;28;20050;-75
2023/06/24 01:13:52;;;;;;;11.93;9.10;;;15.10;99.90;;;;;;5001066;28;20054;-76
2023/06/24 01:16:41;;;;;;;13.27;8.93;;;15.10;99.90;;;;;;4981813;28;20121;-76
2023/06/24 01:19:46;;;;;;;12.05;8.98;;;15.10;99.90;;;;;;4991578;28;20062;-76
2023/06/24 01:22:57;;;;;;;14.23;9.05;;;15.10;99.90;;;;;;4938752;29;20151;-76
2023/06/24 01:25:26;;;;;;;11.55;9.38;;;15.00;99.90;;;;;;4925356;29;20054;-75
2023/06/24 01:28:12;;;;;;;12.82;9.70;;;15.00;99.90;;;;;;4926134;29;20079;-76
2023/06/24 01:30:52;;;;;;;12.65;8.85;;;15.00;99.90;;;;;;4914627;29;20051;-76
2023/06/24 01:33:25;;;;;;;14.57;9.05;;;14.90;99.90;;;;;;4935782;29;20055;-76
2023/06/24 01:35:52;;;;;;;13.90;9.20;;;14.90;99.90;;;;;;4929618;29;20051;-75
2023/06/24 01:38:24;;;;;;;12.43;9.63;;;14.90;99.90;;;;;;4943804;29;20152;-75
2023/06/24 01:40:51;;;;;;;13.00;9.85;;;14.90;99.90;;;;;;4925665;29;20074;-74
2023/06/24 01:43:18;;;;;;;13.45;9.65;;;14.90;99.90;;;;;;4926349;29;20047;-75
2023/06/24 01:45:51;;;;;;;12.30;9.15;;;14.90;99.90;;;;;;4945037;28;20073;-75
2023/06/24 01:48:32;;;;;;;11.60;8.13;;;14.90;99.90;;;;;;4944966;29;20062;-76
2023/06/24 01:51:28;;;;;;;10.73;8.85;;;14.90;99.90;;;;;;4931776;29;20063;-75
2023/06/24 01:54:01;;;;;;;15.45;11.27;;;14.90;99.90;;;;;;4861777;29;20071;-75
2023/06/24 01:56:28;;;;;;;18.27;11.95;;;14.90;99.90;;;;;;4861620;29;20044;-75
2023/06/24 01:58:57;;;;;;;14.80;11.13;;;14.90;99.90;;;;;;4897634;29;20248;-76
2023/06/24 02:01:24;;;;;;;13.43;10.88;;;14.90;99.90;;;;;;4933760;29;20035;-75
2023/06/24 02:03:52;;;;;;;13.70;10.70;;;15.00;99.90;;;;;;4917603;29;20071;-74
2023/06/24 02:06:19;;;;;;;15.40;11.40;;;14.90;99.90;;;;;;4917388;29;20527;-74
2023/06/24 02:08:49;;;;;;;15.30;10.57;;;15.00;99.90;;;;;;4917615;29;20066;-75
2023/06/24 02:11:15;;;;;;;17.40;11.05;;;15.00;99.90;;;;;;4933152;29;20071;-75
2023/06/24 02:13:43;;;;;;;14.70;11.00;;;15.00;99.90;;;;;;4917570;29;20055;-74
2023/06/24 02:16:10;;;;;;;14.73;9.95;;;15.00;99.90;;;;;;4933472;29;20075;-75
2023/06/24 02:18:41;;;;;;;13.75;10.80;;;15.00;99.90;;;;;;4917671;29;20129;-75
2023/06/24 02:21:07;;;;;;;13.90;10.50;;;15.00;99.90;;;;;;4933044;29;20058;-75
2023/06/24 02:23:36;;;;;;;15.02;10.80;;;15.00;99.90;;;;;;4933612;29;20636;-75
2023/06/24 02:26:03;;;;;;;12.80;10.82;;;15.00;99.90;;;;;;4933255;29;20056;-76
2023/06/24 02:28:29;;;;;;;17.33;12.05;;;15.00;99.90;;;;;;4917649;29;20535;-75
2023/06/24 02:30:57;;;;;;;15.95;11.07;;;15.00;99.90;;;;;;4969240;28;20387;-76
2023/06/24 02:33:23;;;;;;;12.98;10.85;;;15.00;99.90;;;;;;4984202;28;20438;-76
2023/06/24 02:35:48;;;;;;;16.92;11.52;;;15.00;99.90;;;;;;5001761;28;20041;-75
2023/06/24 02:38:14;;;;;;;12.88;10.48;;;15.00;99.90;;;;;;4985097;28;20120;-75
2023/06/24 02:40:40;;;;;;;16.38;12.23;;;15.10;99.90;;;;;;4970872;28;20062;-75
2023/06/24 02:43:05;;;;;;;15.55;10.63;;;15.00;99.90;;;;;;4969379;28;20068;-75
2023/06/24 02:45:31;;;;;;;15.50;11.27;;;15.00;99.90;;;;;;4984592;28;20046;-74
2023/06/24 02:47:58;;;;;;;14.93;11.52;;;15.00;99.90;;;;;;4983638;28;20054;-75
2023/06/24 02:50:25;;;;;;;14.23;10.90;;;15.00;99.90;;;;;;4984260;28;20081;-76
2023/06/24 02:52:51;;;;;;;14.27;10.65;;;15.00;99.90;;;;;;5004614;28;20350;-75
2023/06/24 02:55:17;;;;;;;14.63;11.38;;;15.00;99.90;;;;;;5004426;28;20038;-75
2023/06/24 02:57:44;;;;;;;19.23;11.18;;;14.90;99.90;;;;;;4967313;28;20081;-75
2023/06/24 03:00:14;;;;;;;12.73;10.57;;;15.00;99.90;;;;;;4989438;28;20125;-75
2023/06/24 03:02:42;;;;;;;16.50;11.30;;;15.00;99.90;;;;;;5002600;28;20053;-75
2023/06/24 03:05:10;;;;;;;14.68;11.30;;;15.00;99.90;;;;;;5001117;28;20065;-76
2023/06/24 03:07:38;;;;;;;15.10;11.70;;;15.00;99.90;;;;;;5001163;28;20042;-75
2023/06/24 03:10:07;;;;;;;17.23;12.73;;;15.00;99.90;;;;;;5001169;28;20548;-76
2023/06/24 03:12:33;;;;;;;14.43;10.93;;;15.00;99.90;;;;;;4983030;28;20047;-76
2023/06/24 03:15:00;;;;;;;17.10;12.02;;;15.00;99.90;;;;;;4985314;28;20057;-75
2023/06/24 03:17:26;;;;;;;14.65;10.88;;;15.00;99.90;;;;;;4986425;28;20094;-76
2023/06/24 03:19:52;;;;;;;14.93;12.10;;;15.10;99.90;;;;;;4985905;28;20456;-76
2023/06/24 03:22:18;;;;;;;17.70;11.57;;;15.00;99.90;;;;;;4983216;28;20038;-75
2023/06/24 03:24:43;;;;;;;17.38;11.43;;;15.00;99.90;;;;;;5000829;28;20057;-76
2023/06/24 03:27:09;;;;;;;12.68;10.80;;;15.00;99.90;;;;;;4985253;28;20047;-76
2023/06/24 03:29:35;;;;;;;14.93;10.95;;;15.00;99.90;;;;;;4969774;28;20406;-76
2023/06/24 03:32:00;;;;;;;13.65;11.25;;;15.00;99.90;;;;;;5003692;28;20494;-75
2023/06/24 03:34:27;;;;;;;14.55;11.43;;;15.00;99.90;;;;;;4982824;28;20042;-76
2023/06/24 03:36:55;;;;;;;14.60;10.98;;;15.00;99.90;;;;;;4982941;28;20581;-75
2023/06/24 03:39:21;;;;;;;14.77;10.70;;;15.00;99.90;;;;;;4985030;28;20524;-75
2023/06/24 03:41:47;;;;;;;15.85;12.13;;;15.00;99.90;;;;;;4986308;28;20086;-76
2023/06/24 03:44:12;;;;;;;15.30;11.90;;;15.00;99.90;;;;;;5002973;28;20124;-75
2023/06/24 03:46:38;;;;;;;14.73;11.05;;;14.90;99.90;;;;;;4982892;28;20065;-76
2023/06/24 03:49:04;;;;;;;17.73;11.25;;;15.00;99.90;;;;;;5000405;28;20414;-76
2023/06/24 03:51:30;;;;;;;16.35;10.93;;;15.00;99.90;;;;;;5001972;28;20069;-75
2023/06/24 03:53:56;;;;;;;18.73;11.55;;;15.10;99.90;;;;;;5003273;28;20045;-75
2023/06/24 03:56:22;;;;;;;15.40;11.13;;;15.10;99.90;;;;;;5003033;28;20034;-76
2023/06/24 03:58:48;;;;;;;14.00;11.30;;;15.00;99.90;;;;;;4999793;28;20038;-75
2023/06/24 04:01:13;;;;;;;17.50;10.82;;;15.10;99.90;;;;;;4982803;28;20054;-75
2023/06/24 04:03:39;;;;;;;13.70;10.75;;;15.10;99.90;;;;;;4967334;28;20077;-75
2023/06/24 04:06:05;;;;;;;16.05;11.40;;;15.10;99.90;;;;;;5003421;28;20056;-75
2023/06/24 04:08:30;;;;;;;13.18;9.93;;;15.10;99.90;;;;;;5003321;28;20049;-75
2023/06/24 04:11:06;;;;;;;14.73;11.45;;;15.10;99.90;;;;;;4982827;28;20045;-76
2023/06/24 04:13:32;;;;;;;18.90;11.02;;;15.20;99.90;;;;;;4999653;28;20125;-75
2023/06/24 04:15:58;;;;;;;16.10;10.35;;;15.20;99.90;;;;;;4983845;28;20056;-75
2023/06/24 04:18:24;;;;;;;14.73;10.27;;;15.20;99.90;;;;;;4985184;28;20058;-75
2023/06/24 04:20:49;;;;;;;15.95;11.40;;;15.20;99.90;;;;;;4984677;28;20081;-75
2023/06/24 04:23:15;;;;;;;13.75;9.98;;;15.30;99.90;;;;;;4981912;28;20058;-75
2023/06/24 04:25:42;;;;;;;14.25;10.27;;;15.30;99.90;;;;;;4999715;28;20685;-75
2023/06/24 04:28:08;;;;;;;16.95;10.60;;;15.40;99.90;;;;;;5001393;28;20050;-75
2023/06/24 04:30:40;;;;;;;14.00;10.43;;;15.40;99.90;;;;;;5002707;28;20192;-75
2023/06/24 04:33:06;;;;;;;11.73;10.20;;;15.50;99.90;;;;;;5001692;28;20061;-74
2023/06/24 04:35:32;;;;;;;18.05;10.88;;;15.50;99.90;;;;;;4999517;28;20046;-75
2023/06/24 04:37:57;;;;;;;17.25;10.38;;;15.60;99.90;;;;;;4981782;28;20053;-75
2023/06/24 04:40:23;;;;;;;14.27;10.63;;;15.60;99.90;;;;;;4967450;28;20112;-75
2023/06/24 04:42:49;;;;;;;22.35;10.73;;;15.60;99.90;;;;;;5002351;28;20100;-75
2023/06/24 04:45:14;;;;;;;16.10;10.93;;;15.70;99.90;;;;;;5001639;28;20062;-75
2023/06/24 04:47:41;;;;;;;14.10;11.00;;;15.80;99.90;;;;;;4999349;28;20050;-75
2023/06/24 04:50:09;;;;;;;15.02;10.60;;;15.80;99.90;;;;;;4981565;28;20559;-75
2023/06/24 04:52:35;;;;;;;15.98;10.20;;;15.90;99.90;;;;;;4967413;28;20157;-75
2023/06/24 04:55:01;;;;;;;17.58;11.43;;;15.90;99.90;;;;;;4984735;28;20054;-75
2023/06/24 04:57:31;;;;;;;15.98;10.32;;;16.00;99.90;;;;;;4984153;28;20048;-75
2023/06/24 04:59:57;;;;;;;17.63;11.13;;;16.20;99.90;;;;;;4965150;28;20046;-75
2023/06/24 05:02:24;;;;;;;20.63;12.00;;;16.20;99.90;;;;;;4981374;28;20046;-76
2023/06/24 05:04:51;;;;;;;13.68;10.98;;;16.30;99.90;;;;;;4983991;28;20043;-75
2023/06/24 05:07:17;;;;;;;13.70;10.70;;;16.40;99.90;;;;;;4984333;28;20060;-76
2023/06/24 05:09:43;;;;;;;15.88;11.57;;;16.50;99.90;;;;;;5001361;28;20478;-75
2023/06/24 05:12:09;;;;;;;15.15;11.27;;;16.60;99.90;;;;;;4981386;28;20061;-75
2023/06/24 05:14:36;;;;;;;15.82;11.02;;;16.70;99.90;;;;;;4981656;28;20039;-76
2023/06/24 05:17:03;;;;;;;20.02;11.35;;;16.70;99.90;;;;;;5001187;28;20050;-75
2023/06/24 05:19:28;;;;;;;15.20;11.27;;;16.90;99.90;;;;;;5001932;28;20041;-76
2023/06/24 05:21:54;;;;;;;15.18;11.73;;;17.00;99.90;;;;;;5001143;28;20056;-76
2023/06/24 05:24:20;;;;;;;14.32;11.50;;;17.10;99.90;;;;;;4981398;28;20093;-75
2023/06/24 05:26:49;;;;;;;15.68;11.32;;;17.20;99.90;;;;;;4981370;28;20113;-76
2023/06/24 05:29:15;;;;;;;16.45;11.55;;;17.30;99.90;;;;;;4984135;28;20105;-75
2023/06/24 05:31:41;;;;;;;14.60;11.32;;;17.30;99.90;;;;;;4984179;28;20494;-75
2023/06/24 05:34:07;;;;;;;15.07;12.27;;;17.40;99.90;;;;;;4983663;28;20100;-75
2023/06/24 05:36:33;;;;;;;17.15;12.35;;;17.50;99.90;;;;;;4981340;28;20141;-75
2023/06/24 05:38:59;;;;;;;17.88;11.70;;;17.60;99.90;;;;;;4998763;28;20065;-76
2023/06/24 05:41:25;;;;;;;17.95;11.52;;;17.70;99.90;;;;;;5000902;28;20054;-75
2023/06/24 05:44:06;;;;;;;13.50;11.00;;;17.80;99.90;;;;;;4984148;28;20124;-76
2023/06/24 05:46:31;;;;;;;14.60;10.73;;;18.00;99.90;;;;;;4980709;28;20096;-76
2023/06/24 05:48:57;;;;;;;15.88;10.93;;;18.10;99.90;;;;;;4998602;28;20977;-75
2023/06/24 05:51:23;;;;;;;16.98;9.90;;;18.30;99.90;;;;;;4998941;28;20050;-75
2023/06/24 05:53:48;;;;;;;12.93;10.80;;;18.40;99.90;;;;;;5001987;28;20437;-75
2023/06/24 05:56:14;;;;;;;15.52;11.13;;;18.50;99.90;;;;;;5001970;28;20050;-76
2023/06/24 05:58:40;;;;;;;15.68;10.65;;;18.50;99.90;;;;;;4999738;28;20065;-76
2023/06/24 06:01:09;;;;;;;15.88;10.05;;;18.60;99.90;;;;;;4981326;28;20116;-77
2023/06/24 06:03:35;;;;;;;12.63;10.05;;;18.70;99.90;;;;;;4999154;28;20066;-75
2023/06/24 06:06:01;;;;;;;13.60;10.10;;;18.90;99.90;;;;;;5001518;28;20429;-76
2023/06/24 06:08:26;;;;;;;15.95;10.38;;;19.00;99.90;;;;;;4984274;28;20044;-76
2023/06/24 06:10:52;;;;;;;14.15;11.23;;;19.10;99.90;;;;;;4999612;28;20046;-76
2023/06/24 06:13:18;;;;;;;14.20;10.75;;;19.20;99.90;;;;;;4980961;28;20052;-76
2023/06/24 06:15:43;;;;;;;12.82;10.55;;;19.40;99.90;;;;;;4981218;28;20046;-74
2023/06/24 06:18:09;;;;;;;11.80;10.38;;;19.50;99.90;;;;;;5001149;28;20073;-76
2023/06/24 06:20:35;;;;;;;14.02;10.30;;;19.60;99.90;;;;;;4987652;28;20104;-76
2023/06/24 06:23:00;;;;;;;14.23;10.10;;;19.70;99.90;;;;;;4986127;28;20046;-75
2023/06/24 06:25:26;;;;;;;14.73;10.70;;;19.90;99.90;;;;;;5001691;28;20046;-75
2023/06/24 06:27:52;;;;;;;13.95;10.60;;;20.10;99.90;;;;;;5001934;28;20038;-74
2023/06/24 06:30:17;;;;;;;13.57;10.55;;;20.30;99.90;;;;;;5004617;28;20405;-75
2023/06/24 06:32:43;;;;;;;11.68;10.32;;;20.50;99.90;;;;;;4986876;28;20092;-75
2023/06/24 06:35:09;;;;;;;16.95;10.60;;;20.60;99.90;;;;;;5003216;28;20042;-75
2023/06/24 06:37:34;;;;;;;12.95;10.45;;;20.90;99.90;;;;;;5002037;28;20056;-75
2023/06/24 06:40:00;;;;;;;12.60;9.80;;;21.20;99.90;;;;;;5001411;28;20066;-75
2023/06/24 06:42:26;;;;;;;11.40;9.75;;;21.60;99.90;;;;;;5004096;28;20054;-76
2023/06/24 06:44:51;;;;;;;11.32;8.77;;;21.70;99.90;;;;;;4986989;28;20390;-76
2023/06/24 06:47:17;;;;;;;11.20;9.48;;;22.00;99.90;;;;;;4986240;28;20104;-75
2023/06/24 06:49:43;;;;;;;10.75;8.50;;;22.20;99.90;;;;;;4966999;28;20113;-76
2023/06/24 06:52:08;;;;;;;11.85;7.85;;;22.40;99.90;;;;;;5001586;28;20068;-75
2023/06/24 06:54:34;;;;;;;13.32;8.07;;;22.50;99.90;;;;;;4985576;28;20046;-75
2023/06/24 06:57:01;;;;;;;13.63;7.78;;;22.60;99.90;;;;;;4986798;28;20117;-76
2023/06/24 06:59:27;;;;;;;11.38;7.82;;;22.60;99.90;;;;;;5003759;28;20603;-76
2023/06/24 07:01:52;;;;;;;11.75;7.43;;;22.70;99.90;;;;;;5001152;28;20149;-76
2023/06/24 07:04:18;;;;;;;9.75;7.70;;;22.70;99.90;;;;;;4983387;28;20105;-75
2023/06/24 07:06:43;;;;;;;11.40;7.53;;;22.70;99.90;;;;;;5002885;28;20391;-76
2023/06/24 07:09:09;;;;;;;9.90;7.25;;;22.70;99.90;;;;;;4986532;28;20041;-75
2023/06/24 07:11:35;;;;;;;12.07;7.85;;;22.70;99.90;;;;;;4986625;28;20057;-76
2023/06/24 07:14:00;;;;;;;11.02;7.28;;;22.80;99.90;;;;;;5000773;28;20450;-76
2023/06/24 07:16:26;;;;;;;10.32;7.47;;;22.80;99.90;;;;;;4983316;28;20173;-76
2023/06/24 07:18:51;;;;;;;8.77;6.50;;;22.70;99.90;;;;;;4984134;28;20046;-76
2023/06/24 07:21:17;;;;;;;11.65;7.10;;;22.80;99.90;;;;;;4986126;28;20104;-76
2023/06/24 07:23:43;;;;;;;10.15;6.65;;;22.90;99.90;;;;;;5003862;28;20049;-75
2023/06/24 07:26:08;;;;;;;10.50;7.18;;;22.90;99.90;;;;;;4984153;28;20053;-76
2023/06/24 07:28:34;;;;;;;9.85;7.55;;;23.00;99.90;;;;;;4983395;28;20050;-76
2023/06/24 07:31:00;;;;;;;12.45;6.75;;;23.10;99.90;;;;;;4983335;28;20050;-76
2023/06/24 07:33:26;;;;;;;9.90;6.30;;;23.20;99.90;;;;;;4986124;28;20053;-75
2023/06/24 07:35:52;;;;;;;8.05;6.55;;;23.30;99.90;;;;;;5003505;28;20387;-76
2023/06/24 07:38:17;;;;;;;6.03;4.95;;;23.40;99.90;;;;;;4967436;28;20066;-76
2023/06/24 07:40:43;;;;;;;7.32;5.32;;;23.50;99.90;;;;;;4982767;28;20052;-76
2023/06/24 07:43:08;;;;;;;6.47;4.50;;;23.50;99.90;;;;;;4982870;28;20109;-76
2023/06/24 07:45:34;;;;;;;11.50;5.38;;;23.60;99.90;;;;;;4986039;28;20046;-76
2023/06/24 07:48:00;;;;;;;10.52;5.32;;;23.80;99.90;;;;;;4985877;28;20054;-76
2023/06/24 07:50:25;;;;;;;7.10;4.80;;;23.80;99.90;;;;;;4984276;28;20137;-76
2023/06/24 07:52:51;;;;;;;7.18;5.00;;;24.00;99.90;;;;;;4982478;28;20062;-77
2023/06/24 07:55:17;;;;;;;9.80;5.38;;;24.00;99.90;;;;;;4982578;28;20034;-76
2023/06/24 07:57:46;;;;;;;11.30;5.65;;;24.10;99.90;;;;;;4985343;28;20038;-76
2023/06/24 08:00:13;;;;;;;9.98;5.72;;;24.10;99.90;;;;;;4985913;28;20046;-76
2023/06/24 08:02:38;;;;;;;9.55;5.22;;;24.10;99.90;;;;;;5001281;28;20080;-76
2023/06/24 08:05:04;;;;;;;10.35;5.45;;;24.10;99.90;;;;;;4982685;28;20082;-76
2023/06/24 08:07:30;;;;;;;8.00;5.43;;;24.20;99.90;;;;;;4999171;28;20100;-77
2023/06/24 08:09:55;;;;;;;7.32;5.00;;;24.20;99.90;;;;;;4985132;28;20049;-76
2023/06/24 08:12:21;;;;;;;8.77;5.18;;;24.30;99.90;;;;;;4985245;28;20050;-77
2023/06/24 08:14:47;;;;;;;8.63;4.30;;;24.30;99.90;;;;;;4984430;28;20049;-77
2023/06/24 08:17:12;;;;;;;7.20;5.28;;;24.30;99.90;;;;;;4982373;28;20093;-76
2023/06/24 08:19:38;;;;;;;10.50;5.45;;;24.30;99.90;;;;;;4966045;28;20089;-76
2023/06/24 08:22:04;;;;;;;8.50;5.53;;;24.30;99.90;;;;;;4984032;28;20046;-76
2023/06/24 08:24:30;;;;;;;7.13;5.05;;;24.30;99.90;;;;;;4984938;28;20450;-76
2023/06/24 08:26:55;;;;;;;9.45;4.57;;;24.30;99.90;;;;;;5002120;28;20041;-76
2023/06/24 08:29:21;;;;;;;9.73;5.10;;;24.30;99.90;;;;;;4981834;28;20133;-76
2023/06/24 08:31:46;;;;;;;8.82;5.22;;;24.30;99.90;;;;;;4982360;28;20050;-76
2023/06/24 08:34:12;;;;;;;11.73;5.70;;;24.30;99.90;;;;;;4984082;28;20391;-76
2023/06/24 08:36:38;;;;;;;10.98;6.40;;;24.50;99.90;;;;;;4985264;28;20128;-76
2023/06/24 08:39:03;;;;;;;12.30;6.03;;;24.50;99.90;;;;;;4984801;28;20061;-76
2023/06/24 08:41:29;;;;;;;10.55;6.10;;;24.60;99.90;;;;;;4980911;28;20149;-76
2023/06/24 08:43:55;;;;;;;14.40;6.70;;;24.60;99.90;;;;;;4981656;28;20089;-76
2023/06/24 08:46:21;;;;;;;8.68;5.90;;;24.70;99.90;;;;;;4966655;28;20050;-75
2023/06/24 08:48:48;;;;;;;11.18;6.57;;;24.70;99.90;;;;;;4984904;28;20101;-75
2023/06/24 08:51:18;;;;;;;8.38;5.70;;;24.80;99.90;;;;;;4984798;28;20442;-76
2023/06/24 08:53:45;;;;;;;10.48;5.57;;;24.90;99.90;;;;;;4998939;28;20530;-76
2023/06/24 08:56:12;;;;;;;9.15;5.70;;;25.00;99.90;;;;;;4999198;28;20541;-77
2023/06/24 08:58:37;;;;;;;14.80;6.55;;;25.10;99.90;;;;;;5001258;28;20133;-77
2023/06/24 09:01:04;;;;;;;9.55;5.40;;;25.20;99.90;;;;;;4984809;28;20108;-76
2023/06/24 09:03:29;;;;;;;8.23;5.20;;;25.30;99.90;;;;;;5001646;28;20351;-77
2023/06/24 09:05:55;;;;;;;13.68;6.28;;;25.40;99.90;;;;;;4998938;28;20047;-77
2023/06/24 09:08:22;;;;;;;7.88;5.30;;;25.40;99.90;;;;;;4998548;28;20046;-76
2023/06/24 09:10:56;;;;;;;11.38;5.75;;;25.60;99.90;;;;;;4983234;28;20149;-76
2023/06/24 09:13:27;;;;;;;;;;;25.60;99.90;;;;;;5002952;28;20434;-77
2023/06/24 09:15:53;;;;;;;8.32;5.25;;;25.80;99.90;;;;;;4982840;28;20020;-77
2023/06/24 09:18:18;;;;;;;16.27;6.82;;;26.10;99.90;;;;;;4981351;28;20118;-76
2023/06/24 09:20:49;;;;;;;6.45;4.70;;;26.30;99.90;;;;;;4981253;28;20497;-77
2023/06/24 09:23:16;;;;;;;13.13;6.00;;;26.60;99.90;;;;;;4999003;28;20068;-76
2023/06/24 09:25:42;;;;;;;8.75;4.88;;;26.80;99.90;;;;;;4999012;28;20046;-77
2023/06/24 09:28:08;;;;;;;8.65;5.65;;;27.00;99.90;;;;;;5001229;28;20073;-77
2023/06/24 09:30:33;;;;;;;11.88;5.32;;;27.20;99.90;;;;;;5002053;28;20046;-77
2023/06/24 09:32:59;;;;;;;10.02;6.30;;;27.30;99.90;;;;;;4983839;28;20790;-76
2023/06/24 09:35:26;;;;;;;8.23;5.05;;;27.40;99.90;;;;;;4981031;28;20058;-77
2023/06/24 09:37:56;;;;;;;9.18;4.85;;;27.60;99.90;;;;;;4981073;28;20125;-77
2023/06/24 09:40:23;;;;;;;9.30;4.78;;;27.70;99.90;;;;;;5000886;28;20057;-77
2023/06/24 09:43:00;;;;;;;8.30;4.45;;;27.90;99.90;;;;;;5001813;28;20076;-77
2023/06/24 09:45:30;;;;;;;8.23;4.95;;;27.90;99.40;;;;;;4982087;28;20053;-76
2023/06/24 09:47:57;;;;;;;7.57;4.97;;;28.00;99.80;;;;;;4998819;28;20073;-77
2023/06/24 09:50:23;;;;;;;9.57;5.10;;;28.10;99.60;;;;;;4982427;28;20046;-76
2023/06/24 09:52:50;;;;;;;11.45;4.63;;;28.20;99.20;;;;;;4984894;28;20489;-77
2023/06/24 09:55:17;;;;;;;8.73;4.60;;;28.10;99.10;;;;;;4971413;28;20042;-77
2023/06/24 09:57:46;;;;;;;19.52;5.18;;;28.20;98.80;;;;;;4984756;28;20042;-77
2023/06/24 10:00:18;;;;;;;8.68;3.95;;;28.30;98.70;;;;;;4984674;28;20049;-76
2023/06/24 10:02:45;;;;;;;5.57;3.20;;;28.40;97.30;;;;;;5002134;28;20050;-76
2023/06/24 10:05:13;;;;;;;10.18;3.95;;;28.30;98.30;;;;;;5002283;28;20053;-76
2023/06/24 10:07:40;;;;;;;6.30;3.75;;;28.30;98.30;;;;;;5003476;28;20038;-79
2023/06/24 10:10:06;;;;;;;8.30;3.60;;;28.40;98.40;;;;;;4987715;28;20045;-77
2023/06/24 10:12:33;;;;;;;6.18;3.45;;;28.50;98.20;;;;;;5005382;28;20181;-77
2023/06/24 10:15:00;;;;;;;7.88;3.60;;;28.70;98.10;;;;;;5002320;28;20046;-77
2023/06/24 10:17:25;;;;;;;6.53;3.17;;;28.70;97.90;;;;;;4984402;28;20121;-77
2023/06/24 10:19:54;;;;;;;7.32;3.55;;;28.40;97.90;;;;;;4985557;28;20137;-77
2023/06/24 10:22:22;;;;;;;8.32;4.40;;;28.70;97.40;;;;;;4987520;28;20045;-80
2023/06/24 10:24:48;;;;;;;7.00;3.95;;;28.70;96.90;;;;;;4987242;28;20501;-75
2023/06/24 10:27:21;;;;;;;11.00;4.22;;;28.60;96.90;;;;;;5001956;28;20066;-76
2023/06/24 10:29:49;;;;;;;5.30;4.00;;;28.60;97.30;;;;;;4984476;28;20041;-77
2023/06/24 10:32:15;;;;;;;31.70;4.22;;;28.80;97.40;;;;;;4986484;28;20089;-76
2023/06/24 10:34:45;;;;;;;4.97;3.58;;;28.60;97.50;;;;;;5004984;28;20147;-77
2023/06/24 10:37:21;;;;;;;8.98;3.88;;;28.40;97.20;;;;;;4985787;28;20038;-78
2023/06/24 10:39:58;;;;;;;7.72;4.38;;;28.60;96.80;;;;;;4984131;28;20097;-78
2023/06/24 10:42:26;;;;;;;9.32;4.57;;;28.80;96.90;;;;;;4986438;28;20523;-76
2023/06/24 10:44:59;;;;;;;7.60;3.97;;;28.80;97.00;;;;;;4987128;28;20188;-77
2023/06/24 10:47:27;;;;;;;7.07;4.40;;;29.00;97.20;;;;;;5002539;28;20053;-76
2023/06/24 10:49:53;;;;;;;10.52;4.50;;;28.90;97.10;;;;;;4984143;28;20082;-76
2023/06/24 10:52:23;;;;;;;9.23;4.20;;;29.00;97.10;;;;;;5001904;28;20082;-75
2023/06/24 10:54:51;;;;;;;7.05;3.55;;;28.80;95.90;;;;;;4987118;28;20042;-77
2023/06/24 10:57:25;;;;;;;7.28;3.42;;;28.90;97.00;;;;;;4986799;28;20078;-76
2023/06/24 10:59:51;;;;;;;;;;;28.90;97.00;;;;;;4984061;28;20046;-77
2023/06/24 11:02:19;;;;;;;6.80;3.75;;;28.80;96.80;;;;;;4984115;28;20336;-76
2023/06/24 11:04:46;;;;;;;5.95;3.85;;;29.00;97.10;;;;;;4985289;28;20085;-77
2023/06/24 11:07:13;;;;;;;5.93;3.72;;;29.00;97.00;;;;;;4986724;28;20058;-77
2023/06/24 11:09:41;;;;;;;6.65;3.10;;;29.00;96.90;;;;;;4985563;28;20049;-78
2023/06/24 11:12:09;;;;;;;5.65;3.33;;;29.00;96.30;;;;;;4966945;28;20042;-77
2023/06/24 11:14:36;;;;;;;4.90;3.33;;;29.10;96.40;;;;;;4983289;28;20050;-77
2023/06/24 11:17:03;;;;;;;5.15;3.47;;;29.00;96.40;;;;;;4986714;28;20144;-76
2023/06/24 11:19:30;;;;;;;5.80;2.88;;;29.00;95.30;;;;;;5004133;28;20413;-76
2023/06/24 11:22:00;;;;;;;5.57;3.83;;;29.20;96.20;;;;;;5002389;28;20046;-76
2023/06/24 11:24:25;;;;;;;6.50;3.83;;;29.40;96.10;;;;;;4983626;28;20128;-80
2023/06/24 11:26:51;;;;;;;7.63;3.92;;;29.50;96.20;;;;;;5000654;28;20165;-77
2023/06/24 11:29:17;;;;;;;7.53;3.67;;;29.60;95.70;;;;;;4983415;28;20046;-78
2023/06/24 11:31:45;;;;;;;5.93;4.03;;;29.40;95.80;;;;;;5000925;28;20049;-78
2023/06/24 11:34:10;;;;;;;7.05;3.60;;;29.10;95.10;;;;;;4985007;28;20057;-77
2023/06/24 11:36:36;;;;;;;11.60;3.50;;;28.90;95.70;;;;;;5003690;28;20046;-78
2023/06/24 11:39:03;;;;;;;5.80;2.80;;;28.70;95.50;;;;;;5003416;28;20041;-78
2023/06/24 11:41:28;;;;;;;6.07;3.28;;;28.70;94.70;;;;;;4982575;28;20064;-77
2023/06/24 11:43:57;;;;;;;5.75;3.17;;;28.70;95.50;;;;;;4982533;28;20050;-77
2023/06/24 11:46:35;;;;;;;4.70;3.30;;;28.70;95.40;;;;;;5002210;28;20057;-79
2023/06/24 11:49:05;;;;;;;6.55;2.83;;;28.80;95.20;;;;;;4985903;28;20045;-79
2023/06/24 11:51:30;;;;;;;6.40;3.00;;;29.00;95.40;;;;;;5001163;28;20046;-76
2023/06/24 11:54:00;;;;;;;4.07;2.72;;;29.30;95.50;;;;;;4982728;28;20051;-77
2023/06/24 11:56:39;;;;;;;6.72;2.80;;;29.50;95.60;;;;;;5000779;28;20054;-78
2023/06/24 11:59:19;;;;;;;3.97;2.60;;;29.40;94.90;;;;;;4985626;28;20723;-77
2023/06/24 12:01:55;;;;;;;8.48;2.78;;;29.30;94.80;;;;;;4982662;28;20055;-77
2023/06/24 12:04:26;;;;;;;7.70;3.08;;;29.10;94.20;;;;;;4982331;28;20042;-80
2023/06/24 12:06:52;;;;;;;6.65;2.80;;;29.00;94.40;;;;;;4982406;28;20125;-78
2023/06/24 12:09:18;;;;;;;8.93;3.20;;;29.10;94.30;;;;;;4999932;28;20118;-77
2023/06/24 12:11:43;;;;;;;7.15;3.10;;;29.20;94.20;;;;;;4983554;28;20050;-81
2023/06/24 12:14:09;;;;;;;4.63;2.65;;;29.30;94.60;;;;;;4985148;28;20095;-79
2023/06/24 12:16:35;;;;;;;5.90;3.00;;;29.40;94.60;;;;;;4985183;28;20135;-77
2023/06/24 12:19:01;;;;;;;5.10;2.65;;;29.60;94.90;;;;;;4982588;28;20054;-79
2023/06/24 12:21:26;;;;;;;7.22;2.78;;;29.60;94.70;;;;;;4999884;28;20042;-78
2023/06/24 12:23:52;;;;;;;4.20;2.55;;;29.40;94.40;;;;;;5000396;28;20058;-77
2023/06/24 12:26:17;;;;;;;5.57;2.83;;;29.30;94.50;;;;;;4984908;28;20133;-78
2023/06/24 12:28:43;;;;;;;6.03;2.83;;;29.20;94.10;;;;;;4984999;28;20061;-78
2023/06/24 12:31:09;;;;;;;4.18;2.83;;;29.10;94.10;;;;;;5000435;28;20084;-79
2023/06/24 12:33:34;;;;;;;6.03;3.55;;;29.00;94.20;;;;;;4981973;28;20058;-78
2023/06/24 12:36:00;;;;;;;5.38;3.17;;;29.00;94.40;;;;;;4982317;28;20049;-78
2023/06/24 12:38:26;;;;;;;5.03;3.15;;;28.70;94.40;;;;;;4984686;28;20054;-77